Time;durP1;ratioP1;P1;durP2;ratioP2;P2;SDS_P1;SDS_P2;PMS_P1;PMS_P2;Temp;Humidity;BMP_temperature;BMP_pressure;BME280_temperature;BME280_humidity;BME280_pressure;Samples;Min_cycle;Max_cycle;Signal;HPM_P1;HPM_P2
2021/05/08 00:25:49;;;;;;;7.87;4.32;;;;;;;;;;4798005;29;20084;-73
2021/05/08 00:28:15;;;;;;;10.77;4.62;;;;;;;;;;4151534;34;20521;-74
2021/05/08 00:30:41;;;;;;;6.90;4.60;;;;;;;;;;4139114;34;20107;-74
2021/05/08 00:33:07;;;;;;;14.65;4.72;;;;;;;;;;4151787;34;20126;-73
2021/05/08 00:35:33;;;;;;;7.85;4.35;;;;;;;;;;4139030;34;20114;-74
2021/05/08 00:37:59;;;;;;;10.40;4.12;;;;;;;;;;4151731;34;20141;-74
2021/05/08 00:40:26;;;;;;;6.32;4.25;;;;;;;;;;4151606;34;20310;-74
2021/05/08 00:42:52;;;;;;;11.90;4.12;;;;;;;;;;4151809;34;20125;-74
2021/05/08 00:45:20;;;;;;;11.38;4.07;;;;;;;;;;4139375;34;20099;-74
2021/05/08 00:47:50;;;;;;;15.55;5.47;;;;;;;;;;4151777;34;20533;-74
2021/05/08 00:50:17;;;;;;;11.73;4.85;;;;;;;;;;4139464;34;20218;-74
2021/05/08 00:52:44;;;;;;;14.93;4.12;;;;;;;;;;4139483;34;20519;-74
2021/05/08 00:55:11;;;;;;;7.90;3.30;;;;;;;;;;4139440;34;20131;-73
2021/05/08 00:57:37;;;;;;;7.28;3.50;;;;;;;;;;4151679;34;20206;-74
2021/05/08 01:00:05;;;;;;;11.55;5.15;;;;;;;;;;4151742;34;20121;-74
2021/05/08 01:02:31;;;;;;;14.63;3.92;;;;;;;;;;4151660;34;20115;-74
2021/05/08 01:04:58;;;;;;;14.65;4.20;;;;;;;;;;4139057;34;20209;-74
2021/05/08 01:07:24;;;;;;;8.90;4.35;;;;;;;;;;4150110;34;20267;-74
2021/05/08 01:09:50;;;;;;;8.98;5.10;;;;;;;;;;4138978;34;20547;-73
2021/05/08 01:12:17;;;;;;;13.65;6.65;;;;;;;;;;4139330;34;20147;-74
2021/05/08 01:14:43;;;;;;;13.77;6.78;;;;;;;;;;4139095;34;20139;-74
2021/05/08 01:17:09;;;;;;;11.27;6.65;;;;;;;;;;4138836;34;20311;-74
2021/05/08 01:19:35;;;;;;;8.95;6.05;;;;;;;;;;4151453;34;20615;-74
2021/05/08 01:22:01;;;;;;;16.02;7.18;;;;;;;;;;4139103;34;20460;-74
2021/05/08 01:24:28;;;;;;;21.92;8.77;;;;;;;;;;4151600;34;20095;-75
2021/05/08 01:26:54;;;;;;;23.60;9.80;;;;;;;;;;4138371;34;20114;-74
2021/05/08 01:29:20;;;;;;;33.17;12.02;;;;;;;;;;4151669;34;20099;-75
2021/05/08 01:31:47;;;;;;;31.23;13.85;;;;;;;;;;4151548;34;20121;-75
2021/05/08 01:34:13;;;;;;;31.90;12.50;;;;;;;;;;4150293;34;20123;-73
2021/05/08 01:36:40;;;;;;;25.35;10.60;;;;;;;;;;4151536;34;20190;-74
2021/05/08 01:39:06;;;;;;;27.67;9.98;;;;;;;;;;4151571;34;20242;-74
2021/05/08 01:41:33;;;;;;;12.43;5.82;;;;;;;;;;4151280;34;20135;-75
2021/05/08 01:43:59;;;;;;;15.43;6.82;;;;;;;;;;4151404;34;20091;-74
2021/05/08 01:46:26;;;;;;;15.00;6.32;;;;;;;;;;4138615;34;20546;-74
2021/05/08 01:48:53;;;;;;;18.87;5.55;;;;;;;;;;4138278;34;20111;-74
2021/05/08 01:51:19;;;;;;;13.55;4.87;;;;;;;;;;4138576;34;20203;-75
2021/05/08 01:53:45;;;;;;;10.98;4.45;;;;;;;;;;4151217;34;20286;-75
2021/05/08 01:56:12;;;;;;;11.12;4.68;;;;;;;;;;4127737;34;20730;-74
2021/05/08 01:58:38;;;;;;;10.07;4.12;;;;;;;;;;4138809;34;20110;-74
2021/05/08 02:01:04;;;;;;;19.27;5.00;;;;;;;;;;4151003;34;20122;-74
2021/05/08 02:03:31;;;;;;;11.20;4.12;;;;;;;;;;4151176;34;20099;-75
2021/05/08 02:05:57;;;;;;;15.82;3.95;;;;;;;;;;4151180;34;20114;-74
2021/05/08 02:08:23;;;;;;;17.37;4.10;;;;;;;;;;4138592;34;20229;-73
2021/05/08 02:10:50;;;;;;;16.98;3.83;;;;;;;;;;4151003;34;20452;-74
2021/05/08 02:13:16;;;;;;;10.68;3.75;;;;;;;;;;4151112;34;20123;-74
2021/05/08 02:15:43;;;;;;;7.47;3.90;;;;;;;;;;4151275;34;20463;-74
2021/05/08 02:18:09;;;;;;;8.55;3.15;;;;;;;;;;4151034;34;20586;-74
2021/05/08 02:20:39;;;;;;;14.87;3.72;;;;;;;;;;4151011;34;20091;-71
2021/05/08 02:23:10;;;;;;;15.52;4.75;;;;;;;;;;4151130;34;20107;-71
2021/05/08 02:25:36;;;;;;;8.80;3.30;;;;;;;;;;4137224;34;20133;-71
2021/05/08 02:28:03;;;;;;;8.65;3.55;;;;;;;;;;4150705;34;20098;-71
2021/05/08 02:30:31;;;;;;;10.90;3.42;;;;;;;;;;4151177;34;20115;-72
2021/05/08 02:32:57;;;;;;;8.07;3.67;;;;;;;;;;4151165;34;20190;-72
2021/05/08 02:35:25;;;;;;;17.27;3.62;;;;;;;;;;4151050;34;20204;-71
2021/05/08 02:37:53;;;;;;;8.93;3.67;;;;;;;;;;4138382;34;20123;-72
2021/05/08 02:40:25;;;;;;;9.25;3.47;;;;;;;;;;4138526;34;20200;-72
2021/05/08 02:42:51;;;;;;;9.60;3.10;;;;;;;;;;4138208;34;20118;-72
2021/05/08 02:45:17;;;;;;;7.87;3.25;;;;;;;;;;4138203;34;20531;-72
2021/05/08 02:47:45;;;;;;;6.87;3.97;;;;;;;;;;4151020;34;20219;-72
2021/05/08 02:50:12;;;;;;;8.85;3.03;;;;;;;;;;4150745;34;20119;-72
2021/05/08 02:52:39;;;;;;;15.02;5.60;;;;;;;;;;4150554;34;20199;-72
2021/05/08 02:55:05;;;;;;;13.70;6.72;;;;;;;;;;4150772;34;20118;-72
2021/05/08 02:57:32;;;;;;;17.08;9.13;;;;;;;;;;4150923;34;20171;-72
2021/05/08 02:59:58;;;;;;;13.90;7.87;;;;;;;;;;4138437;34;20178;-72
2021/05/08 03:02:24;;;;;;;22.00;7.30;;;;;;;;;;4150658;34;20107;-72
2021/05/08 03:04:53;;;;;;;14.85;7.37;;;;;;;;;;4150544;34;20119;-72
2021/05/08 03:07:19;;;;;;;19.08;8.93;;;;;;;;;;4151044;34;20111;-72
2021/05/08 03:09:46;;;;;;;18.48;7.68;;;;;;;;;;4138872;34;20115;-72
2021/05/08 03:12:13;;;;;;;17.52;7.35;;;;;;;;;;4150674;34;20134;-72
2021/05/08 03:14:39;;;;;;;17.23;7.00;;;;;;;;;;4150602;34;20113;-72
2021/05/08 03:17:06;;;;;;;14.60;6.30;;;;;;;;;;4138016;34;20127;-71
2021/05/08 03:19:33;;;;;;;13.77;7.28;;;;;;;;;;4150784;34;20214;-71
2021/05/08 03:22:00;;;;;;;15.80;5.97;;;;;;;;;;4150499;34;20099;-72
2021/05/08 03:24:27;;;;;;;11.48;5.85;;;;;;;;;;4150522;34;20108;-71
2021/05/08 03:26:54;;;;;;;12.25;5.70;;;;;;;;;;4137058;34;20110;-71
2021/05/08 03:29:23;;;;;;;10.63;6.12;;;;;;;;;;4150288;34;20119;-71
2021/05/08 03:31:51;;;;;;;16.45;5.10;;;;;;;;;;4149403;34;20126;-72
2021/05/08 03:34:18;;;;;;;13.77;5.30;;;;;;;;;;4137912;34;20123;-71
2021/05/08 03:36:46;;;;;;;11.70;4.90;;;;;;;;;;4149989;34;20114;-71
2021/05/08 03:39:15;;;;;;;11.20;5.35;;;;;;;;;;4138185;34;20506;-72
2021/05/08 03:41:42;;;;;;;13.15;4.22;;;;;;;;;;4137211;34;20099;-72
2021/05/08 03:44:08;;;;;;;21.30;4.82;;;;;;;;;;4137774;34;20114;-71
2021/05/08 03:46:36;;;;;;;10.13;4.20;;;;;;;;;;4150063;34;20519;-71
2021/05/08 03:49:04;;;;;;;5.97;3.70;;;;;;;;;;4138020;34;20107;-71
2021/05/08 03:51:30;;;;;;;7.03;3.10;;;;;;;;;;4137401;34;20125;-71
2021/05/08 03:53:57;;;;;;;7.60;3.08;;;;;;;;;;4137944;34;20137;-71
2021/05/08 03:56:23;;;;;;;11.60;6.18;;;;;;;;;;4149970;34;20181;-72
2021/05/08 03:58:50;;;;;;;6.22;3.47;;;;;;;;;;4137804;34;20111;-71
2021/05/08 04:01:17;;;;;;;17.35;4.15;;;;;;;;;;4137298;34;20134;-72
2021/05/08 04:03:43;;;;;;;5.57;3.78;;;;;;;;;;4150137;34;20133;-71
2021/05/08 04:06:09;;;;;;;11.77;5.00;;;;;;;;;;4149653;34;20142;-71
2021/05/08 04:08:35;;;;;;;7.90;4.30;;;;;;;;;;4150098;34;20288;-71
2021/05/08 04:11:01;;;;;;;8.77;3.83;;;;;;;;;;4149735;34;20127;-71
2021/05/08 04:13:29;;;;;;;10.90;3.60;;;;;;;;;;4150006;34;20135;-71
2021/05/08 04:15:59;;;;;;;13.48;3.97;;;;;;;;;;4150109;34;20503;-71
2021/05/08 04:18:25;;;;;;;15.55;4.43;;;;;;;;;;4137658;34;20130;-70
2021/05/08 04:20:52;;;;;;;16.48;4.72;;;;;;;;;;4137241;34;21119;-71
2021/05/08 04:23:18;;;;;;;12.48;4.72;;;;;;;;;;4137117;34;20118;-71
2021/05/08 04:25:44;;;;;;;16.62;5.12;;;;;;;;;;4149201;34;20110;-71
2021/05/08 04:28:11;;;;;;;8.75;4.78;;;;;;;;;;4146431;34;20085;-71
2021/05/08 04:30:37;;;;;;;11.95;4.40;;;;;;;;;;4136446;34;20106;-71
2021/05/08 04:33:04;;;;;;;11.00;4.45;;;;;;;;;;4149929;34;20226;-71
2021/05/08 04:35:30;;;;;;;7.65;4.87;;;;;;;;;;4137043;34;20111;-70
2021/05/08 04:38:06;;;;;;;13.93;5.07;;;;;;;;;;4148108;34;20142;-71
2021/05/08 04:40:34;;;;;;;13.10;5.32;;;;;;;;;;4149596;34;20130;-72
2021/05/08 04:43:02;;;;;;;7.40;4.70;;;;;;;;;;4137377;34;20285;-72
2021/05/08 04:45:28;;;;;;;9.32;5.40;;;;;;;;;;4136804;34;20195;-69
2021/05/08 04:47:55;;;;;;;14.82;4.90;;;;;;;;;;4149411;34;20104;-71
2021/05/08 04:50:25;;;;;;;16.33;5.55;;;;;;;;;;4150882;34;20130;-70
2021/05/08 04:52:52;;;;;;;12.20;5.07;;;;;;;;;;4139512;34;20103;-71
2021/05/08 04:55:20;;;;;;;14.60;7.53;;;;;;;;;;4151843;34;20099;-71
2021/05/08 04:57:46;;;;;;;14.05;5.70;;;;;;;;;;4151724;34;20106;-71
2021/05/08 05:00:13;;;;;;;14.55;6.00;;;;;;;;;;4151689;34;20107;-70
2021/05/08 05:02:47;;;;;;;23.30;6.47;;;;;;;;;;4151528;34;20115;-71
2021/05/08 05:05:15;;;;;;;7.85;4.60;;;;;;;;;;4151369;34;20535;-70
2021/05/08 05:07:44;;;;;;;15.18;5.50;;;;;;;;;;4138790;34;20534;-69
2021/05/08 05:10:12;;;;;;;15.48;6.45;;;;;;;;;;4139159;34;20323;-70
2021/05/08 05:12:38;;;;;;;16.70;6.43;;;;;;;;;;4151811;34;20114;-68
2021/05/08 05:15:08;;;;;;;15.68;6.65;;;;;;;;;;4137546;34;20606;-70
2021/05/08 05:17:35;;;;;;;16.37;7.65;;;;;;;;;;4138194;34;20111;-68
2021/05/08 05:20:03;;;;;;;18.23;7.53;;;;;;;;;;4151474;34;20112;-70
2021/05/08 05:22:29;;;;;;;15.80;7.12;;;;;;;;;;4151400;34;20142;-71
2021/05/08 05:24:55;;;;;;;15.65;7.85;;;;;;;;;;4151263;34;20591;-70
2021/05/08 05:27:21;;;;;;;13.20;6.03;;;;;;;;;;4151280;34;20235;-69
2021/05/08 05:29:48;;;;;;;9.40;5.97;;;;;;;;;;4138785;34;20131;-70
2021/05/08 05:32:15;;;;;;;15.00;6.78;;;;;;;;;;4138708;34;20128;-71
2021/05/08 05:34:41;;;;;;;13.00;5.75;;;;;;;;;;4151198;34;20102;-71
2021/05/08 05:37:07;;;;;;;12.88;6.45;;;;;;;;;;4151162;34;20107;-70
2021/05/08 05:39:33;;;;;;;19.73;7.43;;;;;;;;;;4138821;34;20250;-71
2021/05/08 05:42:00;;;;;;;15.30;6.70;;;;;;;;;;4151420;34;20218;-70
2021/05/08 05:44:26;;;;;;;21.55;7.10;;;;;;;;;;4151114;34;20121;-72
2021/05/08 05:46:53;;;;;;;14.50;6.50;;;;;;;;;;4150829;34;20115;-71
2021/05/08 05:49:19;;;;;;;19.02;7.07;;;;;;;;;;4151119;34;20182;-72
2021/05/08 05:51:46;;;;;;;12.73;6.85;;;;;;;;;;4151081;34;20483;-71
2021/05/08 05:54:12;;;;;;;19.77;6.95;;;;;;;;;;4138648;34;20105;-72
2021/05/08 05:56:38;;;;;;;12.20;5.97;;;;;;;;;;4138442;34;20527;-73
2021/05/08 05:59:06;;;;;;;18.33;6.22;;;;;;;;;;4138861;34;20415;-72
2021/05/08 06:01:32;;;;;;;10.70;6.10;;;;;;;;;;4138045;34;20135;-71
2021/05/08 06:03:59;;;;;;;24.20;9.35;;;;;;;;;;4138920;34;20111;-72
2021/05/08 06:06:25;;;;;;;14.77;9.13;;;;;;;;;;4151056;34;20374;-69
2021/05/08 06:08:51;;;;;;;20.37;8.63;;;;;;;;;;4151167;34;20566;-70
2021/05/08 06:11:17;;;;;;;23.35;9.00;;;;;;;;;;4127483;34;20091;-70
2021/05/08 06:13:43;;;;;;;19.55;7.30;;;;;;;;;;4127462;34;20145;-71
2021/05/08 06:16:09;;;;;;;20.90;8.38;;;;;;;;;;4151366;34;20126;-71
2021/05/08 06:18:35;;;;;;;18.30;9.68;;;;;;;;;;4151026;34;20099;-69
2021/05/08 06:21:02;;;;;;;22.50;9.80;;;;;;;;;;4138445;34;20099;-68
2021/05/08 06:23:28;;;;;;;19.90;7.68;;;;;;;;;;4138734;34;20105;-73
2021/05/08 06:25:54;;;;;;;18.92;9.25;;;;;;;;;;4151365;34;20436;-67
2021/05/08 06:28:20;;;;;;;16.62;8.48;;;;;;;;;;4150964;34;20099;-71
2021/05/08 06:30:47;;;;;;;17.42;8.40;;;;;;;;;;4150748;34;20098;-71
2021/05/08 06:33:13;;;;;;;14.40;8.88;;;;;;;;;;4138767;34;20440;-69
2021/05/08 06:35:39;;;;;;;17.58;7.72;;;;;;;;;;4138370;34;20177;-70
2021/05/08 06:38:06;;;;;;;14.02;6.75;;;;;;;;;;4150894;34;20564;-69
2021/05/08 06:40:35;;;;;;;7.45;3.75;;;;;;;;;;4138464;34;20130;-69
2021/05/08 06:43:01;;;;;;;1.30;1.23;;;;;;;;;;4138578;34;20103;-68
2021/05/08 06:45:27;;;;;;;6.37;3.08;;;;;;;;;;4150714;34;20266;-68
2021/05/08 06:48:00;;;;;;;9.93;3.00;;;;;;;;;;4150700;34;20137;-69
2021/05/08 06:50:28;;;;;;;6.68;2.62;;;;;;;;;;4150599;34;20479;-69
2021/05/08 06:52:54;;;;;;;6.05;2.90;;;;;;;;;;4150510;34;20118;-69
2021/05/08 06:55:20;;;;;;;8.00;2.87;;;;;;;;;;4138449;34;20109;-68
2021/05/08 06:57:50;;;;;;;6.78;2.40;;;;;;;;;;4149549;34;20145;-68
2021/05/08 07:00:17;;;;;;;7.95;3.50;;;;;;;;;;4150491;34;20207;-68
2021/05/08 07:02:44;;;;;;;4.78;2.20;;;;;;;;;;4149322;34;20122;-67
2021/05/08 07:05:12;;;;;;;5.03;2.35;;;;;;;;;;4150882;34;20122;-76
2021/05/08 07:07:40;;;;;;;4.22;2.25;;;;;;;;;;4150637;34;20083;-68
2021/05/08 07:10:06;;;;;;;6.85;1.83;;;;;;;;;;4150548;34;20123;-70
2021/05/08 07:12:32;;;;;;;4.07;2.62;;;;;;;;;;4150297;34;20521;-69
2021/05/08 07:14:58;;;;;;;4.93;2.20;;;;;;;;;;4137891;34;20138;-69
2021/05/08 07:17:27;;;;;;;5.35;2.90;;;;;;;;;;4138339;34;20175;-68
2021/05/08 07:19:53;;;;;;;3.75;2.17;;;;;;;;;;4150732;34;20114;-67
2021/05/08 07:22:19;;;;;;;6.47;2.35;;;;;;;;;;4150614;34;20087;-68
2021/05/08 07:24:46;;;;;;;7.00;2.30;;;;;;;;;;4138236;34;20116;-68
2021/05/08 07:27:12;;;;;;;10.32;2.50;;;;;;;;;;4150124;34;20228;-68
2021/05/08 07:29:38;;;;;;;9.93;2.67;;;;;;;;;;4137615;34;20149;-67
2021/05/08 07:32:06;;;;;;;3.83;2.20;;;;;;;;;;4150151;34;20471;-70
2021/05/08 07:34:33;;;;;;;8.93;2.40;;;;;;;;;;4150255;34;20123;-68
2021/05/08 07:37:01;;;;;;;8.95;1.90;;;;;;;;;;4126553;34;20103;-67
2021/05/08 07:39:27;;;;;;;5.47;2.30;;;;;;;;;;4137724;34;20464;-68
2021/05/08 07:41:53;;;;;;;5.28;1.80;;;;;;;;;;4150491;34;20546;-67
2021/05/08 07:44:20;;;;;;;4.57;2.30;;;;;;;;;;4137601;34;20227;-67
2021/05/08 07:46:47;;;;;;;3.97;1.60;;;;;;;;;;4126618;34;20107;-67
2021/05/08 07:49:13;;;;;;;3.33;2.20;;;;;;;;;;4137687;34;20119;-66
2021/05/08 07:51:39;;;;;;;3.50;2.25;;;;;;;;;;4150136;34;20230;-65
2021/05/08 07:54:05;;;;;;;3.00;1.80;;;;;;;;;;4148952;34;20131;-69
2021/05/08 07:56:33;;;;;;;5.35;2.12;;;;;;;;;;4150091;34;20456;-68
2021/05/08 07:59:00;;;;;;;4.20;2.12;;;;;;;;;;4137702;34;20117;-70
2021/05/08 08:01:29;;;;;;;2.75;1.58;;;;;;;;;;4150323;34;20126;-69
2021/05/08 08:03:56;;;;;;;3.87;2.08;;;;;;;;;;4150044;34;20112;-70
2021/05/08 08:06:22;;;;;;;3.08;1.98;;;;;;;;;;4149848;34;20126;-70
2021/05/08 08:08:49;;;;;;;5.20;2.22;;;;;;;;;;4150249;34;20538;-69
2021/05/08 08:11:18;;;;;;;4.20;1.90;;;;;;;;;;4149969;34;20109;-70
2021/05/08 08:13:47;;;;;;;2.00;1.80;;;;;;;;;;4150253;34;20460;-69
2021/05/08 08:16:13;;;;;;;6.25;2.33;;;;;;;;;;4149338;34;20095;-71
2021/05/08 08:18:39;;;;;;;3.60;1.80;;;;;;;;;;4149792;34;20127;-71
2021/05/08 08:21:05;;;;;;;1.95;1.73;;;;;;;;;;4149918;34;20111;-71
2021/05/08 08:23:31;;;;;;;3.55;1.30;;;;;;;;;;4149683;34;20113;-69
2021/05/08 08:25:58;;;;;;;4.22;2.00;;;;;;;;;;4151530;34;20223;-70
2021/05/08 08:28:24;;;;;;;3.22;2.08;;;;;;;;;;4139514;34;20126;-69
2021/05/08 08:30:50;;;;;;;4.40;2.53;;;;;;;;;;4152012;34;20378;-69
2021/05/08 08:33:16;;;;;;;3.53;1.95;;;;;;;;;;4150607;34;20111;-69
2021/05/08 08:35:42;;;;;;;12.55;2.20;;;;;;;;;;4151729;34;20102;-69
2021/05/08 08:38:09;;;;;;;2.35;1.40;;;;;;;;;;4152295;34;20128;-69
2021/05/08 08:40:35;;;;;;;2.20;1.45;;;;;;;;;;4151689;34;20146;-70
2021/05/08 08:43:01;;;;;;;2.72;1.80;;;;;;;;;;4139265;34;20119;-69
2021/05/08 08:45:27;;;;;;;7.20;1.98;;;;;;;;;;4139260;34;20128;-69
2021/05/08 08:47:54;;;;;;;2.83;1.90;;;;;;;;;;4139079;34;20475;-70
2021/05/08 08:50:20;;;;;;;4.25;2.70;;;;;;;;;;4128207;34;20115;-70
2021/05/08 08:52:47;;;;;;;5.10;1.90;;;;;;;;;;4139451;34;20116;-70
2021/05/08 08:55:13;;;;;;;4.15;2.17;;;;;;;;;;4139195;34;20103;-73
2021/05/08 08:57:42;;;;;;;3.83;2.42;;;;;;;;;;4151718;34;20515;-71
2021/05/08 09:00:11;;;;;;;2.72;1.70;;;;;;;;;;4139123;34;20111;-69
2021/05/08 09:02:37;;;;;;;4.62;2.08;;;;;;;;;;4151738;34;20534;-70
2021/05/08 09:05:04;;;;;;;2.37;1.95;;;;;;;;;;4139228;34;20134;-69
2021/05/08 09:07:31;;;;;;;9.18;2.17;;;;;;;;;;4138786;34;20145;-69
2021/05/08 09:09:59;;;;;;;2.70;2.03;;;;;;;;;;4151617;34;20195;-69
2021/05/08 09:12:27;;;;;;;5.30;2.10;;;;;;;;;;4137369;34;20439;-69
2021/05/08 09:14:53;;;;;;;4.75;2.10;;;;;;;;;;4149927;34;20194;-69
2021/05/08 09:17:25;;;;;;;3.75;1.98;;;;;;;;;;4150757;34;20126;-69
2021/05/08 09:19:55;;;;;;;7.20;2.72;;;;;;;;;;4128355;34;20565;-69
2021/05/08 09:22:34;;;;;;;2.20;1.80;;;;;;;;;;4138722;34;20162;-69
2021/05/08 09:25:17;;;;;;;3.72;1.85;;;;;;;;;;4151541;34;20612;-69
2021/05/08 09:27:45;;;;;;;3.87;2.08;;;;;;;;;;4151142;34;20384;-69
2021/05/08 09:30:24;;;;;;;3.47;2.00;;;;;;;;;;4138977;34;20123;-68
2021/05/08 09:33:01;;;;;;;7.72;2.37;;;;;;;;;;4139660;34;20210;-69
2021/05/08 09:35:34;;;;;;;3.92;1.95;;;;;;;;;;4151375;34;20103;-68
2021/05/08 09:38:13;;;;;;;4.07;2.30;;;;;;;;;;4139309;34;20537;-68
2021/05/08 09:40:44;;;;;;;3.28;2.42;;;;;;;;;;4151333;34;20106;-69
2021/05/08 09:43:11;;;;;;;4.93;2.60;;;;;;;;;;4138850;34;20181;-68
2021/05/08 09:45:47;;;;;;;8.77;2.28;;;;;;;;;;4138795;34;20118;-68
2021/05/08 09:48:21;;;;;;;3.75;2.70;;;;;;;;;;4139222;34;20095;-69
2021/05/08 09:50:47;;;;;;;8.02;2.28;;;;;;;;;;4151036;34;20660;-68
2021/05/08 09:53:30;;;;;;;5.07;2.08;;;;;;;;;;4127931;34;20577;-68
2021/05/08 09:55:57;;;;;;;7.07;1.80;;;;;;;;;;4151308;34;20134;-68
2021/05/08 09:58:27;;;;;;;5.15;2.17;;;;;;;;;;4138930;34;20115;-68
2021/05/08 10:00:53;;;;;;;6.45;2.20;;;;;;;;;;4151238;34;20117;-69
2021/05/08 10:03:21;;;;;;;8.32;2.45;;;;;;;;;;4151054;34;20210;-68
2021/05/08 10:05:48;;;;;;;7.60;2.05;;;;;;;;;;4138406;34;20472;-68
2021/05/08 10:08:15;;;;;;;5.78;2.45;;;;;;;;;;4138705;34;20114;-68
2021/05/08 10:10:41;;;;;;;3.83;2.22;;;;;;;;;;4127358;34;20211;-68
2021/05/08 10:13:11;;;;;;;5.57;2.08;;;;;;;;;;4151347;34;20130;-68
2021/05/08 10:15:39;;;;;;;7.37;2.03;;;;;;;;;;4150768;34;20123;-68
2021/05/08 10:18:06;;;;;;;8.40;2.50;;;;;;;;;;4151120;34;20122;-68
2021/05/08 10:20:33;;;;;;;3.90;2.17;;;;;;;;;;4150601;34;20189;-69
2021/05/08 10:23:10;;;;;;;9.00;2.75;;;;;;;;;;4138443;34;20130;-69
2021/05/08 10:25:37;;;;;;;3.95;2.08;;;;;;;;;;4149412;34;20186;-69
2021/05/08 10:28:04;;;;;;;3.30;2.30;;;;;;;;;;4138592;34;20130;-69
2021/05/08 10:30:31;;;;;;;4.32;2.45;;;;;;;;;;4151013;34;20127;-68
2021/05/08 10:32:58;;;;;;;10.00;2.80;;;;;;;;;;4138632;34;20154;-68
2021/05/08 10:35:44;;;;;;;4.00;2.50;;;;;;;;;;4138437;34;20111;-68
2021/05/08 10:38:13;;;;;;;3.17;2.15;;;;;;;;;;4150752;34;20216;-69
2021/05/08 10:40:59;;;;;;;5.65;2.75;;;;;;;;;;4150830;34;20102;-68
2021/05/08 10:43:54;;;;;;;7.28;2.03;;;;;;;;;;4138815;34;20125;-68
2021/05/08 10:46:22;;;;;;;7.22;3.28;;;;;;;;;;4139198;34;20315;-69
2021/05/08 10:49:08;;;;;;;6.25;2.35;;;;;;;;;;4150460;34;20134;-69
2021/05/08 10:51:56;;;;;;;9.60;2.92;;;;;;;;;;4150822;34;20442;-69
2021/05/08 10:54:39;;;;;;;7.05;1.95;;;;;;;;;;4150958;34;20121;-69
2021/05/08 10:57:16;;;;;;;5.32;2.03;;;;;;;;;;4150911;34;20131;-69
2021/05/08 11:00:00;;;;;;;4.18;2.17;;;;;;;;;;4126965;34;20107;-69
2021/05/08 11:02:42;;;;;;;7.32;2.30;;;;;;;;;;4150573;34;20123;-68
2021/05/08 11:05:32;;;;;;;3.20;2.08;;;;;;;;;;4150812;34;20536;-68
2021/05/08 11:07:58;;;;;;;3.92;2.20;;;;;;;;;;4150920;34;20531;-68
2021/05/08 11:10:34;;;;;;;5.78;2.20;;;;;;;;;;4150588;34;20118;-68
2021/05/08 11:13:10;;;;;;;5.25;2.45;;;;;;;;;;4150755;34;20141;-69
2021/05/08 11:15:52;;;;;;;5.00;2.20;;;;;;;;;;4150663;34;20207;-69
2021/05/08 11:18:30;;;;;;;9.45;2.78;;;;;;;;;;4150479;34;20156;-68
2021/05/08 11:21:02;;;;;;;6.50;3.45;;;;;;;;;;4150669;34;20096;-68
2021/05/08 11:23:59;;;;;;;6.20;1.83;;;;;;;;;;4150772;34;20139;-69
2021/05/08 11:29:11;;;;;;;5.78;2.30;;;;;;;;;;4150425;34;20212;-69
2021/05/08 11:31:48;;;;;;;2.97;2.20;;;;;;;;;;4150633;34;20134;-69
2021/05/08 11:34:24;;;;;;;4.80;2.37;;;;;;;;;;4150422;34;20197;-69
2021/05/08 11:36:56;;;;;;;6.03;2.00;;;;;;;;;;4137817;34;20118;-69
2021/05/08 11:39:34;;;;;;;2.12;1.62;;;;;;;;;;4150515;34;20464;-69
2021/05/08 11:42:11;;;;;;;3.45;2.20;;;;;;;;;;4150430;34;20106;-69
2021/05/08 11:44:38;;;;;;;5.87;2.08;;;;;;;;;;4137942;34;20091;-69
2021/05/08 11:47:35;;;;;;;7.18;2.35;;;;;;;;;;4126387;34;20231;-69
2021/05/08 11:50:04;;;;;;;10.35;2.60;;;;;;;;;;4139719;34;20111;-69
2021/05/08 11:52:51;;;;;;;4.90;1.83;;;;;;;;;;4150406;34;20095;-69
2021/05/08 11:55:21;;;;;;;11.45;2.95;;;;;;;;;;4150098;34;20106;-69
2021/05/08 11:57:58;;;;;;;3.20;2.22;;;;;;;;;;4150089;34;20201;-69
2021/05/08 12:00:25;;;;;;;2.65;2.00;;;;;;;;;;4137065;34;20196;-69
2021/05/08 12:03:14;;;;;;;2.20;1.85;;;;;;;;;;4150272;34;20139;-69
2021/05/08 12:05:42;;;;;;;7.45;1.90;;;;;;;;;;4150077;34;20506;-69
2021/05/08 12:08:08;;;;;;;3.65;1.77;;;;;;;;;;4150197;34;20114;-69
2021/05/08 12:10:36;;;;;;;4.57;2.60;;;;;;;;;;4149971;34;20119;-70
2021/05/08 12:13:02;;;;;;;3.50;2.55;;;;;;;;;;4137462;34;20166;-70
2021/05/08 12:15:35;;;;;;;7.57;2.40;;;;;;;;;;4137530;34;20267;-69
2021/05/08 12:18:05;;;;;;;3.87;2.22;;;;;;;;;;4149969;34;20118;-69
2021/05/08 12:20:33;;;;;;;4.57;2.72;;;;;;;;;;4137216;34;20104;-70
2021/05/08 12:23:02;;;;;;;1.87;1.70;;;;;;;;;;4126268;34;20277;-69
2021/05/08 12:25:28;;;;;;;4.62;2.28;;;;;;;;;;4137472;34;20131;-69
2021/05/08 12:28:16;;;;;;;9.15;2.58;;;;;;;;;;4137348;34;20135;-69
2021/05/08 12:30:50;;;;;;;6.03;2.40;;;;;;;;;;4149920;34;20131;-70
2021/05/08 12:33:21;;;;;;;5.60;2.95;;;;;;;;;;4149786;34;20106;-69
2021/05/08 12:35:47;;;;;;;5.90;2.95;;;;;;;;;;4137220;34;20118;-69
2021/05/08 12:38:25;;;;;;;3.78;2.78;;;;;;;;;;4137171;34;20590;-69
2021/05/08 12:40:51;;;;;;;3.50;1.80;;;;;;;;;;4149824;34;20194;-69
2021/05/08 12:43:28;;;;;;;2.87;2.03;;;;;;;;;;4137484;34;20135;-69
2021/05/08 12:46:01;;;;;;;3.12;1.77;;;;;;;;;;4149635;34;20211;-68
2021/05/08 12:48:39;;;;;;;4.75;2.80;;;;;;;;;;4149557;34;20591;-69
2021/05/08 12:51:36;;;;;;;4.87;3.40;;;;;;;;;;4148337;34;20182;-69
2021/05/08 12:54:18;;;;;;;4.62;2.00;;;;;;;;;;4137411;34;20135;-69
2021/05/08 12:56:45;;;;;;;14.07;2.58;;;;;;;;;;4137360;34;20118;-69
2021/05/08 12:59:11;;;;;;;1.85;1.60;;;;;;;;;;4137358;34;20138;-69
2021/05/08 13:01:40;;;;;;;3.60;1.90;;;;;;;;;;4149497;34;20091;-70
2021/05/08 13:04:06;;;;;;;2.42;2.08;;;;;;;;;;4149566;34;20787;-69
2021/05/08 13:06:33;;;;;;;4.60;2.92;;;;;;;;;;4125735;34;20134;-70
2021/05/08 13:08:59;;;;;;;2.47;1.95;;;;;;;;;;4149715;34;20198;-69
2021/05/08 13:11:44;;;;;;;7.85;2.30;;;;;;;;;;4138330;34;20133;-69
2021/05/08 13:14:26;;;;;;;5.28;1.85;;;;;;;;;;4151875;34;20100;-69
2021/05/08 13:16:57;;;;;;;8.57;2.92;;;;;;;;;;4139070;34;20654;-69
2021/05/08 13:19:24;;;;;;;10.18;5.60;;;;;;;;;;4151660;34;20099;-69
2021/05/08 13:21:51;;;;;;;8.80;4.93;;;;;;;;;;4151368;34;20123;-69
2021/05/08 13:24:24;;;;;;;12.30;4.95;;;;;;;;;;4139193;34;20528;-69
2021/05/08 13:26:50;;;;;;;10.55;5.43;;;;;;;;;;4151027;34;20142;-69
2021/05/08 13:29:16;;;;;;;8.75;2.85;;;;;;;;;;4151397;34;20130;-69
2021/05/08 13:31:42;;;;;;;9.85;3.97;;;;;;;;;;4151510;34;20146;-69
2021/05/08 13:34:08;;;;;;;6.12;3.00;;;;;;;;;;4151651;34;20125;-69
2021/05/08 13:36:34;;;;;;;7.70;2.70;;;;;;;;;;4138957;34;20170;-69
2021/05/08 13:39:02;;;;;;;4.65;2.65;;;;;;;;;;4149846;34;20488;-69
2021/05/08 13:41:28;;;;;;;11.40;3.62;;;;;;;;;;4151342;34;20118;-69
2021/05/08 13:43:54;;;;;;;4.45;2.58;;;;;;;;;;4139160;34;20107;-69
2021/05/08 13:46:20;;;;;;;4.47;2.80;;;;;;;;;;4151034;34;20543;-69
2021/05/08 13:48:46;;;;;;;5.82;3.12;;;;;;;;;;4151184;34;20142;-69
2021/05/08 13:51:12;;;;;;;5.20;3.83;;;;;;;;;;4138870;34;20153;-69
2021/05/08 13:53:38;;;;;;;6.10;3.58;;;;;;;;;;4138570;34;20135;-69
2021/05/08 13:56:05;;;;;;;5.57;2.80;;;;;;;;;;4151330;34;20127;-70
2021/05/08 13:58:31;;;;;;;7.20;3.62;;;;;;;;;;4151364;34;20103;-69
2021/05/08 14:00:57;;;;;;;8.85;3.10;;;;;;;;;;4138577;34;20506;-68
2021/05/08 14:03:23;;;;;;;6.47;3.92;;;;;;;;;;4127456;34;20119;-68
2021/05/08 14:05:49;;;;;;;2.75;1.80;;;;;;;;;;4150988;34;20135;-68
2021/05/08 14:08:15;;;;;;;7.68;2.62;;;;;;;;;;4151224;34;20107;-68
2021/05/08 14:10:41;;;;;;;5.72;2.90;;;;;;;;;;4151333;34;20521;-68
2021/05/08 14:13:08;;;;;;;13.25;5.75;;;;;;;;;;4138500;34;20118;-68
2021/05/08 14:15:34;;;;;;;10.02;3.70;;;;;;;;;;4149592;34;20550;-68
2021/05/08 14:18:00;;;;;;;12.68;6.50;;;;;;;;;;4151023;34;20119;-69
2021/05/08 14:20:27;;;;;;;5.22;2.55;;;;;;;;;;4138406;34;20131;-68
2021/05/08 14:22:53;;;;;;;4.60;2.90;;;;;;;;;;4137956;34;20239;-69
2021/05/08 14:25:20;;;;;;;7.28;3.12;;;;;;;;;;4150692;34;20564;-68
2021/05/08 14:27:47;;;;;;;5.50;2.30;;;;;;;;;;4150790;34;20126;-69
2021/05/08 14:30:13;;;;;;;4.15;2.60;;;;;;;;;;4149444;34;20103;-69
2021/05/08 14:32:40;;;;;;;11.77;3.35;;;;;;;;;;4150962;34;20182;-69
2021/05/08 14:35:08;;;;;;;19.05;11.57;;;;;;;;;;4150754;34;20111;-69
2021/05/08 14:37:34;;;;;;;7.18;3.70;;;;;;;;;;4150623;34;20098;-69
2021/05/08 14:40:00;;;;;;;5.45;3.58;;;;;;;;;;4138249;34;20127;-69
2021/05/08 14:42:26;;;;;;;5.62;3.28;;;;;;;;;;4138312;34;20115;-69
2021/05/08 14:44:52;;;;;;;8.20;3.78;;;;;;;;;;4149481;34;20133;-69
2021/05/08 14:47:19;;;;;;;5.90;3.37;;;;;;;;;;4138295;34;20817;-69
2021/05/08 14:49:47;;;;;;;7.60;4.60;;;;;;;;;;4138382;34;20226;-69
2021/05/08 14:52:13;;;;;;;10.85;5.78;;;;;;;;;;4138408;34;20131;-69
2021/05/08 14:54:39;;;;;;;9.30;4.43;;;;;;;;;;4150559;34;20212;-68
2021/05/08 14:57:05;;;;;;;9.02;4.95;;;;;;;;;;4138357;34;20292;-68
2021/05/08 14:59:31;;;;;;;12.35;4.12;;;;;;;;;;4150546;34;20212;-68
2021/05/08 15:01:58;;;;;;;10.15;4.70;;;;;;;;;;4150806;34;20189;-68
2021/05/08 15:04:24;;;;;;;12.43;5.75;;;;;;;;;;4150351;34;20157;-68
2021/05/08 15:06:51;;;;;;;8.23;5.15;;;;;;;;;;4138071;34;20142;-69
2021/05/08 15:09:17;;;;;;;7.20;4.87;;;;;;;;;;4138184;34;20142;-69
2021/05/08 15:11:43;;;;;;;11.88;4.87;;;;;;;;;;4150569;34;20115;-69
2021/05/08 15:14:10;;;;;;;8.90;4.93;;;;;;;;;;4150619;34;20091;-69